^^
Station Historical Data
Daily Summary for January 19, 2018 Units:  Metric    English   Both
« Previous Day
Next Day »
Daily Weekly Monthly Yearly Custom
  High: Low: Average:
Temperature: -17.8 °C 17.7 °C 23.5 °C
Dew Point: -17.8 °C 0.3 °C 8.4 °C
Humidity: Humidity% 10% 41%
Wind Speed: 0km/h 0km/h 11.7km/h
Wind Gust: 0km/h - -
Wind- - SW
Pressure: 0 hPa 1001.9 hPa -
Precipitation: 0 mm    
Historical Graphs
 
 
Tabular Data for January 19, 2018
Time Temperature Dew Point Pressure Wind Wind Speed Wind Gust Humidity Rainfall Rate (Hourly) solar Conditions
-17.8 °C -17.8 °C 0 hPa Calm     Humidity% 0 mm SolarRadiationWatts/m^2 W/m2 Conditions
00:01 23 °C 7.9 °C 1008.4 hPa SSW 11.1 km/h 11.3 km/h 38% 0 mm 0.0 W/m2
00:06 22.9 °C 8.2 °C 1008.4 hPa SSW 9.7 km/h 12.9 km/h 39% 0 mm 0.0 W/m2
00:16 22.7 °C 8.4 °C 1008.4 hPa SSW 11.1 km/h 16.1 km/h 40% 0 mm 0.0 W/m2
00:21 22.7 °C 8.4 °C 1008.4 hPa SSW 6.4 km/h 11.3 km/h 40% 0 mm 0.0 W/m2
00:26 22.6 °C 8.3 °C 1008 hPa SSW 11.1 km/h 12.9 km/h 40% 0 mm 0.0 W/m2
00:32 22.6 °C 8.3 °C 1008 hPa SSW 9.7 km/h 11.3 km/h 40% 0 mm 0.0 W/m2
00:37 22.4 °C 8.1 °C 1008 hPa SSW 7.9 km/h 11.3 km/h 40% 0 mm 0.0 W/m2
00:42 22.3 °C 8.4 °C 1008 hPa SSW 6.4 km/h 11.3 km/h 41% 0 mm 0.0 W/m2
00:47 22.3 °C 8.4 °C 1008 hPa SSW 13 km/h 13 km/h 41% 0 mm 0.0 W/m2
00:57 22.1 °C 8.6 °C 1007.7 hPa SSW 11.1 km/h 16.1 km/h 42% 0 mm 0.0 W/m2
01:02 22 °C 8.5 °C 1007.7 hPa SW 9.7 km/h 17.7 km/h 42% 0 mm 0.0 W/m2
01:07 21.9 °C 8.8 °C 1007.3 hPa SW 14.3 km/h 17.7 km/h 43% 0 mm 0.0 W/m2
01:12 21.9 °C 8.8 °C 1007.7 hPa SW 14.3 km/h 16.1 km/h 43% 0 mm 0.0 W/m2
01:17 21.8 °C 9 °C 1007.3 hPa SW 13 km/h 16.1 km/h 44% 0 mm 0.0 W/m2
01:22 21.7 °C 8.9 °C 1007.3 hPa SW 16.3 km/h 16.3 km/h 44% 0 mm 0.0 W/m2
01:32 21.6 °C 8.8 °C 1007.7 hPa SW 6.4 km/h 8 km/h 44% 0 mm 0.0 W/m2
01:37 21.6 °C 8.8 °C 1007.7 hPa SW 11.1 km/h 12.9 km/h 44% 0 mm 0.0 W/m2
01:42 21.4 °C 9 °C 1007.3 hPa SW 13 km/h 14.5 km/h 45% 0 mm 0.0 W/m2
01:52 21.3 °C 8.9 °C 1007.3 hPa SW 9.7 km/h 11.3 km/h 45% 0 mm 0.0 W/m2
01:57 21.2 °C 9.1 °C 1007 hPa SW 9.7 km/h 14.5 km/h 46% 0 mm 0.0 W/m2
02:02 21.1 °C 9.3 °C 1007 hPa SW 13 km/h 13 km/h 47% 0 mm 0.0 W/m2
02:07 21 °C 9.3 °C 1007 hPa SW 9.7 km/h 12.9 km/h 47% 0 mm 0.0 W/m2
02:13 20.9 °C 9.2 °C 1007 hPa SW 6.4 km/h 11.3 km/h 47% 0 mm 0.0 W/m2
02:18 20.8 °C 9.1 °C 1007.3 hPa SW 7.9 km/h 11.3 km/h 47% 0 mm 0.0 W/m2
02:23 20.7 °C 9.3 °C 1007 hPa SW 9.7 km/h 11.3 km/h 48% 0 mm 0.0 W/m2
02:28 20.6 °C 9.2 °C 1007 hPa SW 13 km/h 13 km/h 48% 0 mm 0.0 W/m2
02:33 20.5 °C 9.4 °C 1006.7 hPa SW 11.1 km/h 14.5 km/h 49% 0 mm 0.0 W/m2
02:38 20.4 °C 9.3 °C 1006.7 hPa SW 9.7 km/h 11.3 km/h 49% 0 mm 0.0 W/m2
02:43 20.3 °C 9.2 °C 1006.7 hPa SW 9.7 km/h 9.7 km/h 49% 0 mm 0.0 W/m2
02:48 20.2 °C 9.4 °C 1006.7 hPa SW 11.1 km/h 11.3 km/h 50% 0 mm 0.0 W/m2
02:53 20.2 °C 9.4 °C 1006.7 hPa SW 9.7 km/h 9.7 km/h 50% 0 mm 0.0 W/m2
02:58 20.1 °C 9.4 °C 1006.7 hPa SW 7.9 km/h 12.9 km/h 50% 0 mm 0.0 W/m2
03:03 20.1 °C 9.6 °C 1006.3 hPa SW 13 km/h 14.5 km/h 51% 0 mm 0.0 W/m2
03:09 20.1 °C 9.6 °C 1006.7 hPa SW 7.9 km/h 12.9 km/h 51% 0 mm 0.0 W/m2
03:18 19.9 °C 9.8 °C 1006.3 hPa SW 9.7 km/h 11.3 km/h 52% 0 mm 0.0 W/m2
03:28 19.7 °C 9.6 °C 1006.3 hPa SW 4.7 km/h 6.4 km/h 52% 0 mm 0.0 W/m2
03:34 19.5 °C 9.7 °C 1006.3 hPa SW 6.4 km/h 8 km/h 53% 0 mm 0.0 W/m2
03:39 19.4 °C 9.6 °C 1006.3 hPa SW 6.4 km/h 9.7 km/h 53% 0 mm 0.0 W/m2
03:44 19.3 °C 9.5 °C 1006.3 hPa SW 7.9 km/h 9.7 km/h 53% 0 mm 0.0 W/m2
03:49 19.2 °C 9.7 °C 1006.3 hPa SW 7.9 km/h 9.7 km/h 54% 0 mm 0.0 W/m2
03:59 19.1 °C 9.6 °C 1006.3 hPa SW 6.4 km/h 9.7 km/h 54% 0 mm 0.0 W/m2
04:05 19.1 °C 9.6 °C 1006.3 hPa SW 6.4 km/h 9.7 km/h 54% 0 mm 0.0 W/m2
04:15 18.9 °C 9.7 °C 1006 hPa SW 9.7 km/h 11.3 km/h 55% 0 mm 0.0 W/m2
04:25 19 °C 9.8 °C 1006.3 hPa SW 7.9 km/h 8 km/h 55% 0 mm 0.0 W/m2
04:35 18.9 °C 9.7 °C 1006.3 hPa SW 6.4 km/h 9.7 km/h 55% 0 mm 0.0 W/m2
04:41 18.8 °C 9.8 °C 1006.3 hPa SW 6.4 km/h 8 km/h 56% 0 mm 0.0 W/m2
04:49 18.6 °C 9.9 °C 1006.3 hPa SW 9.7 km/h 12.9 km/h 57% 0 mm 0.0 W/m2
04:54 18.7 °C 10 °C 1006.3 hPa SW 6.4 km/h 11.3 km/h 57% 0 mm 0.0 W/m2
04:59 18.7 °C 10 °C 1006.3 hPa SW 6.4 km/h 9.7 km/h 57% 0 mm 0.0 W/m2
05:04 18.7 °C 10 °C 1006.3 hPa SW 9.7 km/h 9.7 km/h 57% 0 mm 0.0 W/m2
05:09 18.6 °C 9.9 °C 1006.3 hPa SW 7.9 km/h 8 km/h 57% 0 mm 0.0 W/m2
05:14 18.4 °C 9.7 °C 1006.3 hPa SW 9.7 km/h 9.7 km/h 57% 0 mm 0.0 W/m2
05:20 18.3 °C 9.6 °C 1006.3 hPa SW 7.9 km/h 9.7 km/h 57% 0 mm 0.0 W/m2
05:31 18.2 °C 9.5 °C 1006.3 hPa SW 6.4 km/h 9.7 km/h 57% 0 mm 0.0 W/m2
05:40 18.1 °C 9.7 °C 1006.3 hPa SW 7.9 km/h 8 km/h 58% 0 mm 0.0 W/m2
05:45 18.1 °C 9.7 °C 1006.3 hPa SW 11.1 km/h 11.3 km/h 58% 0 mm 0.0 W/m2
05:50 18 °C 9.6 °C 1006.7 hPa SW 6.4 km/h 9.7 km/h 58% 0 mm 0.0 W/m2
05:55 17.9 °C 9.5 °C 1006.7 hPa SW 6.4 km/h 8 km/h 58% 0 mm 0.0 W/m2
06:07 17.8 °C 9.4 °C 1006.7 hPa SW 6.4 km/h 8 km/h 58% 0 mm 0.0 W/m2
06:16 17.7 °C 9.8 °C 1006.7 hPa SW 7.9 km/h 11.3 km/h 60% 0 mm 5.0 W/m2
06:22 17.7 °C 9.8 °C 1006.7 hPa SW 7.9 km/h 9.7 km/h 60% 0 mm 9.0 W/m2
06:32 17.8 °C 9.9 °C 1006.7 hPa SW 9.7 km/h 11.3 km/h 60% 0 mm 16.0 W/m2
06:49 18.4 °C 10.2 °C 1006.7 hPa SW 11.1 km/h 14.5 km/h 59% 0 mm 49.0 W/m2
06:59 18.9 °C 10.5 °C 1006.7 hPa SW 13 km/h 17.7 km/h 58% 0 mm 83.0 W/m2
07:11 19.2 °C 10.7 °C 1007 hPa SW 11.1 km/h 17.7 km/h 58% 0 mm 121.0 W/m2
07:26 19.5 °C 11.3 °C 1007 hPa SW 17.7 km/h 19.3 km/h 59% 0 mm 186.0 W/m2
07:57 20.1 °C 11.3 °C 1007.3 hPa SW 14.3 km/h 16.1 km/h 57% 0 mm 301.0 W/m2
08:11 20.6 °C 11.5 °C 1007 hPa SW 14.3 km/h 16.1 km/h 56% 0 mm 355.0 W/m2
08:27 21 °C 11.3 °C 1007 hPa SW 13 km/h 14.5 km/h 54% 0 mm 406.0 W/m2
08:42 21.5 °C 11.5 °C 1007 hPa SW 9.7 km/h 14.5 km/h 53% 0 mm 459.0 W/m2
08:56 22.2 °C 11.6 °C 1007 hPa SW 11.1 km/h 14.5 km/h 51% 0 mm 512.0 W/m2
09:27 23.1 °C 11.5 °C 1007 hPa SW 13 km/h 13 km/h 48% 0 mm 610.0 W/m2
09:57 24.4 °C 11 °C 1007.3 hPa SW 7.9 km/h 11.3 km/h 43% 0 mm 701.0 W/m2
10:28 26.4 °C 10.1 °C 1007 hPa SW 14.3 km/h 16.1 km/h 36% 0 mm 780.0 W/m2
10:59 27.9 °C 8.7 °C 1006.7 hPa SW 13 km/h 13 km/h 30% 0 mm 851.0 W/m2
11:15 28.5 °C 7.7 °C 1006.3 hPa SW 11.1 km/h 11.3 km/h 27% 0 mm 881.0 W/m2
11:35 29.6 °C 8.1 °C 1006.3 hPa SW 9.7 km/h 11.3 km/h 26% 0 mm 919.0 W/m2
11:50 30.3 °C 7.5 °C 1006.3 hPa SW 7.9 km/h 17.7 km/h 24% 0 mm 940.0 W/m2
12:20 31.8 °C 7.5 °C 1006 hPa Calm   11.3 km/h 22% 0 mm 969.0 W/m2
12:51 33.2 °C 6.5 °C 1005.6 hPa WSW 7.9 km/h 12.9 km/h 19% 0 mm 986.0 W/m2
13:11 33.9 °C 4.6 °C 1005.3 hPa Calm     16% 0 mm 981.0 W/m2
13:33 34.7 °C 4.3 °C 1005 hPa Calm   3.2 km/h 15% 0 mm 979.0 W/m2
13:44 35.2 °C 3.7 °C 1004.6 hPa West 4.7 km/h 12.9 km/h 14% 0 mm 970.0 W/m2
14:43 35.6 °C 5 °C 1003.9 hPa SW 6.4 km/h 17.7 km/h 15% 0 mm 904.0 W/m2
15:35 36.8 °C 2.7 °C 1003.3 hPa Calm   14.5 km/h 12% 0 mm 786.0 W/m2
16:01 36.9 °C 0.3 °C 1002.9 hPa SW 6.4 km/h 11.3 km/h 10% 0 mm 719.0 W/m2
16:15 37.1 °C 0.4 °C 1002.9 hPa SSW 14.3 km/h 22.5 km/h 10% 0 mm 671.0 W/m2
16:35 37.4 °C 0.7 °C 1002.6 hPa South 9.7 km/h 17.7 km/h 10% 0 mm 612.0 W/m2
17:31 36.8 °C 2.7 °C 1001.9 hPa South 20.9 km/h 29 km/h 12% 0 mm 427.0 W/m2
17:41 36.6 °C 3.7 °C 1001.9 hPa South 16.3 km/h 29 km/h 13% 0 mm 390.0 W/m2
18:27 35.4 °C 4.8 °C 1001.9 hPa SSW 24.1 km/h 33.8 km/h 15% 0 mm 236.0 W/m2
18:42 34.7 °C 5.2 °C 1001.9 hPa South 28.8 km/h 30.6 km/h 16% 0 mm 174.0 W/m2
18:56 34 °C 6.3 °C 1002.3 hPa South 27.4 km/h 32.2 km/h 18% 0 mm 111.0 W/m2
19:07 33.7 °C 6.1 °C 1002.3 hPa SSW 20.9 km/h 29 km/h 18% 0 mm 79.0 W/m2
19:32 32.6 °C 8.1 °C 1002.6 hPa SSW 30.6 km/h 30.6 km/h 22% 0 mm 16.0 W/m2
19:48 31.4 °C 9 °C 1002.9 hPa SSW 28.8 km/h 32.2 km/h 25% 0 mm 7.0 W/m2
20:01 30 °C 7.8 °C 1002.9 hPa SSW 22.7 km/h 30.6 km/h 25% 0 mm 0.0 W/m2
20:12 29.7 °C 7.6 °C 1003.3 hPa SSW 25.9 km/h 25.9 km/h 25% 0 mm 0.0 W/m2
20:28 29.2 °C 7.7 °C 1003.3 hPa SSW 14.3 km/h 22.5 km/h 26% 0 mm 0.0 W/m2
20:57 28.1 °C 8.9 °C 1003.9 hPa SSW 17.7 km/h 24.1 km/h 30% 0 mm 0.0 W/m2
21:09 27.7 °C 9 °C 1004.3 hPa SSW 17.7 km/h 20.9 km/h 31% 0 mm 0.0 W/m2
21:22 27.2 °C 9.1 °C 1004.3 hPa SSW 19.5 km/h 22.5 km/h 32% 0 mm 0.0 W/m2
21:32 26.8 °C 8.7 °C 1004.3 hPa SSW 20.9 km/h 25.7 km/h 32% 0 mm 0.0 W/m2
21:43 26.5 °C 7 °C 1004.6 hPa SSW 24.1 km/h 25.7 km/h 29% 0 mm 0.0 W/m2
21:58 26.1 °C 8.1 °C 1004.6 hPa SSW 17.7 km/h 27.4 km/h 32% 0 mm 0.0 W/m2
22:13 25.7 °C 8.7 °C 1004.6 hPa SSW 20.9 km/h 25.7 km/h 34% 0 mm 0.0 W/m2
22:27 25.3 °C 9.2 °C 1005 hPa SSW 20.9 km/h 22.5 km/h 36% 0 mm 0.0 W/m2
22:43 24.9 °C 9.6 °C 1005 hPa SSW 14.3 km/h 22.5 km/h 38% 0 mm 0.0 W/m2
22:58 24.5 °C 9.6 °C 1005.3 hPa SSW 16.3 km/h 20.9 km/h 39% 0 mm 0.0 W/m2
23:11 24.2 °C 9.7 °C 1005.3 hPa South 16.3 km/h 22.5 km/h 40% 0 mm 0.0 W/m2
23:19 24 °C 9.6 °C 1005.6 hPa South 17.7 km/h 20.9 km/h 40% 0 mm 0.0 W/m2
23:28 23.8 °C 9.8 °C 1005.6 hPa South 14.3 km/h 19.3 km/h 41% 0 mm 0.0 W/m2
23:38 23.6 °C 9.6 °C 1005.6 hPa SSW 16.3 km/h 25.7 km/h 41% 0 mm 0.0 W/m2
23:48 23.3 °C 9.7 °C 1005.6 hPa SSW 19.5 km/h 24.1 km/h 42% 0 mm 0.0 W/m2
23:58 23.1 °C 9.5 °C 1005.6 hPa South 13 km/h 17.7 km/h 42% 0 mm 0.0 W/m2
Canyon Roadhouse, Fishriver Canyon, Namibia
Compliments of Weather Underground - 2.25 mb